createdAt,value
2019-03-26T00:02:07.035Z,59.20
2019-03-26T00:04:35.890Z,59.80
2019-03-26T00:07:04.555Z,60.60
2019-03-26T00:09:33.206Z,60.80
2019-03-26T00:12:01.862Z,61.30
2019-03-26T00:14:30.515Z,62.60
2019-03-26T00:16:59.297Z,63.40
2019-03-26T00:19:28.011Z,63.00
2019-03-26T00:21:56.727Z,63.40
2019-03-26T00:24:25.401Z,63.60
2019-03-26T00:26:54.038Z,64.50
2019-03-26T00:29:22.775Z,64.30
2019-03-26T00:31:51.495Z,65.40
2019-03-26T00:34:20.172Z,67.30
2019-03-26T00:36:48.811Z,68.70
2019-03-26T00:39:17.503Z,68.90
2019-03-26T00:41:46.289Z,69.70
2019-03-26T00:44:15.154Z,69.10
2019-03-26T00:46:43.965Z,69.80
2019-03-26T00:49:12.755Z,71.40
2019-03-26T00:51:41.411Z,72.90
2019-03-26T00:54:10.235Z,74.20
2019-03-26T00:56:38.963Z,73.70
2019-03-26T00:59:07.681Z,72.80
2019-03-26T01:01:36.407Z,72.90
2019-03-26T01:04:05.258Z,73.10
2019-03-26T01:06:33.986Z,72.40
2019-03-26T01:09:02.664Z,72.70
2019-03-26T01:11:31.331Z,72.50
2019-03-26T01:14:00.030Z,71.80
2019-03-26T01:16:28.674Z,72.20
2019-03-26T01:18:57.387Z,72.50
2019-03-26T01:21:26.075Z,72.30
2019-03-26T01:23:57.729Z,72.60
2019-03-26T01:26:26.374Z,72.40
2019-03-26T01:28:55.039Z,72.30
2019-03-26T01:31:23.678Z,72.10
2019-03-26T01:33:52.417Z,71.90
2019-03-26T01:36:21.126Z,70.90
2019-03-26T01:38:49.910Z,70.90
2019-03-26T01:41:18.545Z,70.90
2019-03-26T01:43:47.196Z,70.90
2019-03-26T01:46:15.861Z,70.70
2019-03-26T01:48:44.501Z,70.60
2019-03-26T01:51:13.146Z,70.90
2019-03-26T01:53:41.798Z,71.30
2019-03-26T01:56:10.465Z,71.20
2019-03-26T01:58:39.102Z,70.50
2019-03-26T02:01:07.755Z,70.50
2019-03-26T02:03:36.461Z,70.80
2019-03-26T02:06:05.125Z,70.60
2019-03-26T02:08:33.753Z,70.70
2019-03-26T02:11:02.446Z,70.50
2019-03-26T02:13:31.098Z,70.70
2019-03-26T02:15:59.739Z,70.40
2019-03-26T02:18:28.400Z,70.00
2019-03-26T02:20:57.057Z,69.50
2019-03-26T02:23:25.726Z,69.70
2019-03-26T02:25:54.404Z,69.70
2019-03-26T02:28:23.150Z,69.40
2019-03-26T02:30:51.858Z,69.30
2019-03-26T02:33:20.714Z,69.60
2019-03-26T02:35:49.368Z,70.00
2019-03-26T02:38:18.084Z,70.10
2019-03-26T02:40:46.726Z,69.90
2019-03-26T02:43:15.371Z,69.50
2019-03-26T02:45:44.018Z,69.20
2019-03-26T02:48:12.688Z,69.50
2019-03-26T02:50:41.340Z,69.70
2019-03-26T02:53:09.991Z,69.00
2019-03-26T02:55:38.889Z,68.70
2019-03-26T02:58:07.590Z,69.30
2019-03-26T03:00:36.324Z,69.50
2019-03-26T03:03:05.044Z,69.60
2019-03-26T03:05:35.569Z,69.60
2019-03-26T03:08:04.068Z,69.30
2019-03-26T03:10:32.816Z,70.10
2019-03-26T03:13:01.459Z,70.10
2019-03-26T03:15:30.314Z,70.50
2019-03-26T03:17:58.994Z,70.50
2019-03-26T03:20:27.649Z,70.50
2019-03-26T03:22:56.455Z,70.50
2019-03-26T03:25:25.240Z,70.50
2019-03-26T03:27:53.892Z,70.50
2019-03-26T03:30:22.612Z,70.60
2019-03-26T03:32:51.276Z,70.30
2019-03-26T03:35:19.935Z,70.10
2019-03-26T03:37:48.627Z,70.10
2019-03-26T03:40:17.331Z,69.60
2019-03-26T03:42:46.123Z,69.60
2019-03-26T03:45:17.897Z,69.60
2019-03-26T03:47:47.487Z,69.40
2019-03-26T03:50:16.281Z,69.10
2019-03-26T03:52:45.955Z,68.40
2019-03-26T03:55:14.950Z,67.90
2019-03-26T03:57:45.279Z,68.20
2019-03-26T04:00:34.467Z,68.50
2019-03-26T04:03:04.348Z,68.80
2019-03-26T04:05:33.237Z,68.50
2019-03-26T04:08:02.609Z,68.40
2019-03-26T04:10:31.271Z,68.20
2019-03-26T04:12:59.988Z,68.10
2019-03-26T04:15:28.622Z,68.50
2019-03-26T04:17:57.274Z,68.30
2019-03-26T04:20:25.917Z,68.50
2019-03-26T04:22:54.585Z,68.10
2019-03-26T04:25:23.306Z,67.30
2019-03-26T04:27:52.080Z,66.90
2019-03-26T04:30:31.064Z,67.10
2019-03-26T04:32:59.796Z,67.20
2019-03-26T04:35:28.570Z,66.60
2019-03-26T04:37:57.407Z,66.20
2019-03-26T04:40:26.045Z,66.20
2019-03-26T04:42:54.835Z,65.80
2019-03-26T04:45:23.573Z,65.20
2019-03-26T04:47:52.227Z,65.00
2019-03-26T04:50:20.879Z,65.00
2019-03-26T04:52:49.523Z,65.00
2019-03-26T04:55:18.173Z,64.40
2019-03-26T04:57:46.901Z,64.30
2019-03-26T05:00:16.185Z,64.00
2019-03-26T05:02:44.906Z,63.90
2019-03-26T05:05:13.691Z,63.10
2019-03-26T05:07:42.337Z,62.80
2019-03-26T05:10:11.055Z,63.00
2019-03-26T05:12:45.874Z,62.30
2019-03-26T05:15:14.941Z,62.10
2019-03-26T05:17:43.799Z,61.70
2019-03-26T05:20:12.657Z,61.40
2019-03-26T05:22:41.359Z,61.10
2019-03-26T05:25:10.350Z,60.80
2019-03-26T05:27:45.465Z,60.20
2019-03-26T05:30:09.930Z,59.80
2019-03-26T05:32:38.753Z,59.70
2019-03-26T05:35:07.782Z,59.70
2019-03-26T05:37:36.521Z,59.40
2019-03-26T05:40:07.991Z,59.20
2019-03-26T05:42:37.375Z,59.10
2019-03-26T05:45:08.927Z,59.50
2019-03-26T05:47:37.714Z,59.70
2019-03-26T05:50:08.512Z,59.10
2019-03-26T05:52:37.979Z,58.70
2019-03-26T05:55:08.422Z,58.20
2019-03-26T05:57:37.493Z,57.80
2019-03-26T06:00:09.887Z,57.70
2019-03-26T06:02:38.646Z,57.20
2019-03-26T06:05:07.626Z,57.30
2019-03-26T06:07:36.286Z,56.70
2019-03-26T06:10:09.609Z,56.20
2019-03-26T06:12:38.275Z,55.50
2019-03-26T06:15:09.357Z,54.50
2019-03-26T06:17:39.675Z,54.10
2019-03-26T06:20:09.113Z,54.70
2019-03-26T06:22:37.844Z,53.30
2019-03-26T06:25:07.764Z,53.40
2019-03-26T06:27:36.623Z,53.70
2019-03-26T06:30:07.983Z,54.00
2019-03-26T06:32:37.289Z,54.10
2019-03-26T06:35:09.902Z,54.30
2019-03-26T06:37:38.699Z,55.40
2019-03-26T06:40:09.746Z,56.50
2019-03-26T06:42:38.483Z,56.90
2019-03-26T06:45:11.116Z,56.70
2019-03-26T06:47:39.900Z,56.60
2019-03-26T06:50:10.257Z,56.20
2019-03-26T06:52:39.087Z,55.80
2019-03-26T06:55:09.078Z,55.50
2019-03-26T06:57:37.968Z,55.50
2019-03-26T07:00:09.068Z,55.70
2019-03-26T07:02:38.064Z,55.90
2019-03-26T07:05:07.347Z,56.10
2019-03-26T07:07:35.995Z,56.50
2019-03-26T07:10:08.970Z,56.90
2019-03-26T07:12:37.613Z,57.60
2019-03-26T07:15:10.049Z,57.80
2019-03-26T07:17:38.810Z,58.10
2019-03-26T07:20:08.791Z,58.00
2019-03-26T07:22:37.514Z,57.90
2019-03-26T07:25:09.111Z,57.70
2019-03-26T07:27:38.110Z,58.10
2019-03-26T07:30:08.561Z,58.40
2019-03-26T07:32:37.286Z,58.50
2019-03-26T07:35:07.962Z,58.50
2019-03-26T07:37:45.026Z,58.50
2019-03-26T07:40:08.247Z,58.30
2019-03-26T07:42:40.853Z,57.80
2019-03-26T07:45:10.795Z,58.50
2019-03-26T07:47:39.543Z,58.60
2019-03-26T07:50:13.847Z,58.20
2019-03-26T07:52:40.947Z,57.50
2019-03-26T07:55:09.835Z,56.80
2019-03-26T07:57:38.532Z,56.80
2019-03-26T08:00:11.174Z,56.90
2019-03-26T08:02:39.983Z,55.90
2019-03-26T08:05:09.107Z,54.50
2019-03-26T08:07:38.136Z,53.60
2019-03-26T08:10:08.140Z,53.00
2019-03-26T08:12:38.529Z,52.30
2019-03-26T08:15:07.976Z,51.80
2019-03-26T08:17:36.704Z,52.60
2019-03-26T08:20:07.378Z,51.10
2019-03-26T08:22:36.099Z,50.10
2019-03-26T08:25:06.794Z,50.10
2019-03-26T08:27:35.453Z,51.10
2019-03-26T08:30:08.736Z,49.40
2019-03-26T08:32:37.564Z,48.10
2019-03-26T08:35:06.623Z,46.80
2019-03-26T08:37:35.305Z,46.40
2019-03-26T08:40:08.906Z,46.00
2019-03-26T08:42:37.627Z,44.10
2019-03-26T08:45:10.260Z,43.40
2019-03-26T08:47:38.999Z,45.40
2019-03-26T08:50:09.195Z,45.00
2019-03-26T08:52:38.490Z,45.60
2019-03-26T08:55:10.533Z,46.40
2019-03-26T08:57:39.320Z,44.50
2019-03-26T09:00:10.125Z,44.90
2019-03-26T09:02:38.767Z,43.40
2019-03-26T09:05:08.758Z,43.00
2019-03-26T09:07:38.735Z,42.80
2019-03-26T09:10:09.959Z,41.90
2019-03-26T09:12:39.671Z,40.50
2019-03-26T09:15:10.346Z,40.20
2019-03-26T09:17:44.221Z,39.10
2019-03-26T09:20:13.030Z,37.70
2019-03-26T09:22:44.275Z,37.10
2019-03-26T09:25:13.261Z,36.60
2019-03-26T09:27:42.133Z,36.50
2019-03-26T09:30:13.284Z,35.40
2019-03-26T09:32:42.102Z,34.30
2019-03-26T09:35:11.391Z,34.00
2019-03-26T09:37:40.260Z,33.60
2019-03-26T09:40:09.454Z,33.00
2019-03-26T09:42:38.470Z,34.10
2019-03-26T09:45:10.898Z,34.00
2019-03-26T09:47:39.696Z,33.50
2019-03-26T09:50:10.458Z,31.90
2019-03-26T09:52:40.656Z,30.50
2019-03-26T09:55:09.647Z,29.90
2019-03-26T09:57:41.439Z,29.30
2019-03-26T10:00:11.415Z,28.80
2019-03-26T10:02:43.184Z,28.40
2019-03-26T10:08:00.334Z,27.70
2019-03-26T10:10:28.994Z,27.30
2019-03-26T10:12:57.630Z,27.40
2019-03-26T10:15:28.791Z,27.00
2019-03-26T10:17:57.428Z,26.10
2019-03-26T10:20:30.197Z,25.80
2019-03-26T10:22:59.189Z,24.70
2019-03-26T10:25:27.992Z,25.00
2019-03-26T10:27:56.635Z,25.10
2019-03-26T10:30:33.712Z,22.80
2019-03-26T10:33:02.594Z,23.50
2019-03-26T10:35:31.251Z,24.50
2019-03-26T10:37:59.913Z,25.00
2019-03-26T10:40:36.483Z,23.60
2019-03-26T10:43:08.106Z,22.10
2019-03-26T10:45:36.854Z,21.40
2019-03-26T10:48:07.142Z,20.30
2019-03-26T10:50:35.866Z,20.30
2019-03-26T10:53:04.671Z,19.80
2019-03-26T10:55:33.381Z,19.80
2019-03-26T10:58:03.710Z,20.10
2019-03-26T11:00:32.413Z,20.40
2019-03-26T11:03:01.177Z,20.50
2019-03-26T11:05:29.881Z,20.80
2019-03-26T11:07:59.620Z,19.10
2019-03-26T11:10:30.005Z,19.50
2019-03-26T11:12:58.654Z,18.90
2019-03-26T11:15:27.434Z,19.20
2019-03-26T11:17:57.821Z,20.50
2019-03-26T11:20:29.630Z,19.40
2019-03-26T11:23:00.825Z,18.80
2019-03-26T11:25:32.353Z,19.20
2019-03-26T11:28:01.007Z,18.70
2019-03-26T11:30:31.222Z,18.00
2019-03-26T11:33:00.003Z,17.60
2019-03-26T11:35:28.733Z,17.10
2019-03-26T11:37:58.918Z,17.60
2019-03-26T11:40:29.123Z,16.80
2019-03-26T11:42:57.848Z,16.80
2019-03-26T11:45:26.746Z,15.70
2019-03-26T11:47:55.463Z,14.80
2019-03-26T11:50:24.253Z,15.20
2019-03-26T11:52:52.972Z,15.30
2019-03-26T11:55:22.075Z,15.50
2019-03-26T11:57:52.416Z,16.30
2019-03-26T12:00:24.771Z,17.00
2019-03-26T12:02:53.567Z,17.70
2019-03-26T12:05:22.252Z,18.10
2019-03-26T12:07:50.907Z,18.40
2019-03-26T12:10:23.623Z,17.20
2019-03-26T12:12:52.375Z,16.70
2019-03-26T12:15:21.162Z,15.90
2019-03-26T12:17:54.241Z,13.40
2019-03-26T12:20:22.901Z,13.40
2019-03-26T12:22:51.614Z,13.40
2019-03-26T12:25:20.269Z,13.10
2019-03-26T12:27:48.995Z,12.90
2019-03-26T12:30:21.719Z,13.20
2019-03-26T12:32:52.160Z,13.00
2019-03-26T12:35:30.533Z,13.80
2019-03-26T12:37:59.354Z,14.40
2019-03-26T12:40:28.066Z,12.50
2019-03-26T12:42:58.563Z,12.40
2019-03-26T12:45:27.299Z,12.90
2019-03-26T12:47:56.023Z,13.30
2019-03-26T12:50:24.835Z,12.70
2019-03-26T12:52:53.485Z,12.30
2019-03-26T12:55:23.692Z,13.90
2019-03-26T12:57:52.338Z,15.00
2019-03-26T13:00:24.089Z,13.80
2019-03-26T13:02:52.725Z,14.30
2019-03-26T13:05:23.250Z,13.90
2019-03-26T13:07:51.913Z,14.60
2019-03-26T13:10:20.793Z,14.00
2019-03-26T13:12:49.507Z,13.20
2019-03-26T13:15:18.441Z,12.10
2019-03-26T13:17:47.158Z,12.10
2019-03-26T13:20:17.598Z,12.30
2019-03-26T13:22:46.261Z,12.00
2019-03-26T13:25:16.624Z,12.30
2019-03-26T13:27:45.375Z,12.50
2019-03-26T13:30:14.372Z,12.30
2019-03-26T13:32:44.729Z,12.20
2019-03-26T13:35:15.016Z,12.00
2019-03-26T13:37:43.854Z,12.20
2019-03-26T13:40:26.518Z,12.80
2019-03-26T13:42:49.434Z,13.00
2019-03-26T13:45:18.299Z,13.40
2019-03-26T13:47:52.472Z,12.40
2019-03-26T13:50:21.199Z,11.80
2019-03-26T13:52:54.333Z,11.60
2019-03-26T13:55:27.614Z,11.90
2019-03-26T13:57:55.486Z,12.00
2019-03-26T14:00:35.402Z,12.30
2019-03-26T14:03:04.226Z,12.00
2019-03-26T14:05:33.010Z,12.40
2019-03-26T14:08:07.549Z,13.00
2019-03-26T14:10:41.281Z,11.80
2019-03-26T14:13:16.401Z,11.50
2019-03-26T14:15:45.209Z,12.20
2019-03-26T14:18:13.930Z,12.10
2019-03-26T14:20:46.971Z,12.40
2019-03-26T14:23:15.619Z,11.80
2019-03-26T14:25:51.997Z,11.50
2019-03-26T14:28:23.727Z,12.50
2019-03-26T14:30:52.408Z,11.90
2019-03-26T14:33:21.061Z,11.10
2019-03-26T14:35:51.252Z,11.60
2019-03-26T14:38:21.438Z,12.00
2019-03-26T14:40:55.032Z,11.80
2019-03-26T14:43:20.590Z,11.70
2019-03-26T14:45:50.768Z,12.10
2019-03-26T14:48:20.947Z,11.60
2019-03-26T14:50:51.138Z,11.30
2019-03-26T14:53:19.799Z,10.70
2019-03-26T14:55:48.531Z,11.00
2019-03-26T14:58:17.213Z,12.00
2019-03-26T15:00:47.670Z,12.30
2019-03-26T15:03:16.481Z,12.40
2019-03-26T15:05:45.209Z,12.30
2019-03-26T15:08:15.427Z,11.90
2019-03-26T15:10:44.240Z,12.80
2019-03-26T15:13:12.920Z,12.90
2019-03-26T15:15:41.564Z,12.90
2019-03-26T15:18:10.290Z,11.80
2019-03-26T15:20:39.042Z,12.00
2019-03-26T15:23:07.902Z,11.90
2019-03-26T15:25:36.623Z,12.10
2019-03-26T15:28:05.338Z,12.30
2019-03-26T15:30:34.188Z,12.10
2019-03-26T15:33:02.923Z,11.30
2019-03-26T15:35:33.195Z,12.20
2019-03-26T15:38:01.858Z,13.10
2019-03-26T15:40:32.124Z,12.90
2019-03-26T15:43:00.778Z,12.90
2019-03-26T15:45:30.426Z,13.00
2019-03-26T15:47:59.169Z,14.90
2019-03-26T15:50:43.500Z,16.00
2019-03-26T15:53:15.202Z,16.90
2019-03-26T15:55:44.194Z,17.40
2019-03-26T15:58:14.454Z,17.50
2019-03-26T16:00:43.274Z,18.30
2019-03-26T16:03:12.037Z,19.70
2019-03-26T16:05:45.598Z,21.30
2019-03-26T16:08:14.315Z,22.50
2019-03-26T16:10:44.609Z,23.10
2019-03-26T16:13:13.261Z,23.90
2019-03-26T16:15:44.606Z,24.00
2019-03-26T16:18:12.279Z,24.40
2019-03-26T16:20:41.156Z,24.90
2019-03-26T16:23:09.840Z,25.50
2019-03-26T16:25:38.493Z,26.10
2019-03-26T16:28:07.159Z,27.20
2019-03-26T16:30:35.861Z,27.60
2019-03-26T16:33:04.590Z,28.00
2019-03-26T16:35:33.323Z,28.00
2019-03-26T16:38:02.051Z,28.60
2019-03-26T16:40:30.775Z,28.70
2019-03-26T16:43:00.460Z,28.80
2019-03-26T16:45:32.040Z,28.70
2019-03-26T16:48:00.831Z,28.90
2019-03-26T16:50:33.794Z,28.70
2019-03-26T16:53:06.594Z,29.10
2019-03-26T16:55:35.414Z,29.20
2019-03-26T16:58:04.207Z,29.70
2019-03-26T17:00:33.565Z,29.10
2019-03-26T17:03:03.768Z,29.00
2019-03-26T17:05:32.498Z,28.90
2019-03-26T17:08:01.381Z,29.10
2019-03-26T17:10:30.175Z,29.10
2019-03-26T17:13:00.597Z,29.10
2019-03-26T17:15:30.867Z,29.20
2019-03-26T17:18:01.603Z,29.50
2019-03-26T17:20:37.610Z,29.70
2019-03-26T17:23:06.473Z,30.00
2019-03-26T17:25:35.170Z,30.20
2019-03-26T17:28:03.899Z,30.30
2019-03-26T17:30:32.628Z,30.40
2019-03-26T17:33:02.258Z,30.50
2019-03-26T17:35:32.547Z,31.00
2019-03-26T17:38:03.985Z,31.20
2019-03-26T17:40:32.628Z,31.70
2019-03-26T17:43:02.811Z,32.40
2019-03-26T17:45:31.467Z,33.40
2019-03-26T17:48:00.190Z,33.20
2019-03-26T17:50:28.854Z,33.10
2019-03-26T17:53:00.488Z,33.10
2019-03-26T17:55:29.194Z,33.00
2019-03-26T17:57:58.005Z,33.10
2019-03-26T18:00:38.210Z,33.10
2019-03-26T18:03:26.554Z,33.40
2019-03-26T18:05:52.219Z,33.80
2019-03-26T18:08:20.956Z,34.00
2019-03-26T18:10:49.718Z,34.40
2019-03-26T18:13:18.464Z,34.50
2019-03-26T18:15:47.190Z,34.90
2019-03-26T18:18:15.931Z,35.10
2019-03-26T18:20:44.721Z,35.20
2019-03-26T18:23:13.472Z,36.00
2019-03-26T18:25:42.359Z,36.20
2019-03-26T18:28:12.597Z,36.40
2019-03-26T18:30:41.448Z,36.10
2019-03-26T18:33:10.238Z,36.00
2019-03-26T18:35:38.976Z,36.10
2019-03-26T18:38:07.818Z,35.70
2019-03-26T18:40:36.665Z,35.30
2019-03-26T18:43:05.470Z,35.40
2019-03-26T18:45:37.408Z,35.30
2019-03-26T18:48:06.189Z,35.20
2019-03-26T18:50:35.106Z,35.10
2019-03-26T18:53:03.837Z,35.10
2019-03-26T18:55:39.792Z,35.60
2019-03-26T18:58:08.608Z,36.10
2019-03-26T19:00:38.233Z,36.10
2019-03-26T19:03:07.715Z,35.90
2019-03-26T19:05:45.069Z,36.30
2019-03-26T19:08:13.874Z,36.80
2019-03-26T19:10:42.599Z,37.60
2019-03-26T19:13:19.184Z,38.10
2019-03-26T19:15:44.342Z,37.90
2019-03-26T19:18:13.024Z,37.50
2019-03-26T19:20:41.747Z,37.60
2019-03-26T19:23:12.091Z,37.80
2019-03-26T19:25:57.102Z,38.30
2019-03-26T19:28:25.831Z,38.50
2019-03-26T19:30:57.250Z,39.00
2019-03-26T19:33:25.971Z,39.50
2019-03-26T19:35:56.699Z,39.40
2019-03-26T19:38:26.974Z,40.00
2019-03-26T19:40:55.695Z,40.10
2019-03-26T19:43:24.351Z,40.30
2019-03-26T19:45:53.108Z,40.40
2019-03-26T19:48:21.758Z,40.60
2019-03-26T19:50:50.532Z,40.80
2019-03-26T19:53:20.144Z,40.50
2019-03-26T19:55:51.885Z,40.50
2019-03-26T19:58:25.251Z,40.80
2019-03-26T20:00:53.982Z,40.70
2019-03-26T20:03:22.714Z,41.10
2019-03-26T20:05:51.454Z,42.10
2019-03-26T20:08:20.091Z,41.50
2019-03-26T20:10:48.926Z,41.70
2019-03-26T20:13:24.732Z,41.70
2019-03-26T20:15:52.636Z,42.10
2019-03-26T20:18:21.350Z,41.70
2019-03-26T20:20:50.101Z,41.80
2019-03-26T20:23:18.869Z,42.00
2019-03-26T20:25:47.555Z,42.30
2019-03-26T20:28:16.394Z,42.30
2019-03-26T20:30:45.151Z,42.40
2019-03-26T20:33:14.462Z,42.50
2019-03-26T20:35:43.265Z,42.20
2019-03-26T20:38:18.740Z,41.80
2019-03-26T20:40:50.433Z,41.60
2019-03-26T20:43:19.117Z,41.30
2019-03-26T20:45:47.925Z,41.60
2019-03-26T20:48:18.194Z,41.80
2019-03-26T20:50:46.977Z,42.20
2019-03-26T20:53:17.307Z,42.40
2019-03-26T20:55:54.154Z,42.60
2019-03-26T20:58:19.514Z,42.70
2019-03-26T21:00:48.265Z,42.80
2019-03-26T21:03:17.031Z,42.70
2019-03-26T21:05:50.329Z,42.80
2019-03-26T21:08:19.095Z,42.90
2019-03-26T21:10:50.899Z,43.10
2019-03-26T21:13:19.556Z,42.50
2019-03-26T21:15:57.077Z,42.00
2019-03-26T21:18:20.300Z,41.80
2019-03-26T21:20:52.401Z,41.40
2019-03-26T21:23:23.494Z,41.90
2019-03-26T21:25:55.132Z,41.30
2019-03-26T21:28:23.835Z,41.10
2019-03-26T21:30:57.289Z,41.00
2019-03-26T21:33:25.958Z,41.20
2019-03-26T21:35:54.683Z,41.60
2019-03-26T21:38:23.414Z,41.60
2019-03-26T21:40:52.173Z,41.90
2019-03-26T21:43:21.020Z,42.00
2019-03-26T21:45:49.745Z,42.10
2019-03-26T21:48:18.472Z,42.30
2019-03-26T21:50:47.216Z,42.90
2019-03-26T21:53:15.864Z,42.80
2019-03-26T21:55:44.521Z,42.90
2019-03-26T21:58:13.376Z,42.70
2019-03-26T22:00:44.286Z,42.60
2019-03-26T22:03:12.647Z,42.50
2019-03-26T22:05:47.918Z,41.80
2019-03-26T22:08:16.549Z,41.80
2019-03-26T22:10:49.431Z,41.80
2019-03-26T22:13:19.731Z,41.80
2019-03-26T22:15:48.383Z,41.60
2019-03-26T22:18:17.316Z,41.70
2019-03-26T22:20:47.940Z,41.20
2019-03-26T22:23:19.355Z,41.40
2019-03-26T22:26:02.688Z,41.30
2019-03-26T22:28:31.478Z,41.60
2019-03-26T22:31:00.237Z,41.60
2019-03-26T22:33:28.872Z,41.90
2019-03-26T22:35:57.560Z,41.90
2019-03-26T22:38:27.843Z,42.50
2019-03-26T22:40:56.498Z,43.10
2019-03-26T22:43:25.174Z,43.20
2019-03-26T22:45:53.873Z,43.20
2019-03-26T22:48:22.523Z,43.70
2019-03-26T22:50:51.267Z,44.30
2019-03-26T22:53:21.571Z,44.80
2019-03-26T22:55:50.244Z,44.70
2019-03-26T22:58:18.985Z,44.40
2019-03-26T23:00:47.979Z,44.70
2019-03-26T23:03:16.702Z,44.00
2019-03-26T23:05:45.445Z,44.20
2019-03-26T23:08:14.087Z,44.30
2019-03-26T23:10:42.891Z,44.30
2019-03-26T23:13:11.694Z,44.00
2019-03-26T23:15:40.493Z,44.30
2019-03-26T23:18:09.278Z,44.30
2019-03-26T23:20:39.704Z,43.70
2019-03-26T23:23:08.502Z,43.40
2019-03-26T23:25:37.149Z,42.50
2019-03-26T23:28:07.353Z,42.00
2019-03-26T23:30:37.622Z,41.20
2019-03-26T23:33:06.363Z,41.20
2019-03-26T23:35:36.662Z,41.20
2019-03-26T23:38:05.538Z,41.30
2019-03-26T23:40:37.886Z,41.50
2019-03-26T23:43:06.621Z,41.70
2019-03-26T23:45:35.274Z,41.80
2019-03-26T23:48:03.911Z,42.00
2019-03-26T23:50:34.029Z,41.90
2019-03-26T23:53:02.687Z,41.80
2019-03-26T23:55:31.341Z,41.90
2019-03-26T23:58:00.138Z,41.70
